Lena — V2FR — position and weather

sailwx.info

Track history (hours):
 
Tides and Currents Weather Stations Pressure Air Temp Water Temp Dewpoint Dewpoint Depression Visibility Wind Speed Wind Dir Waves Ship Positions

Lena

Last reported at 2016-Jun-27 20:33 UTC. Time now 2016-Jun-29 16:30 UTC.
Position N 36°44' E 122°57'.

Length 152 m; draft 6 m.

Type: Ship. MMSI: 304080808.

Date/timePositionNaut miles runAvg speedWind from/ knotsBaromVisibWave heightAir tempDewpointWater temp
2016-Jun-27 20:33N 36°44' E 122°57'1817.7
2016-Jun-27 19:33N 37°02' E 122°58'1817.6
2016-Jun-27 18:33N 37°19' E 122°58'1716.4
2016-Jun-27 17:32N 37°36' E 122°54'1616.5
2016-Jun-27 16:32N 37°45' E 122°37'1616.6
2016-Jun-27 15:33N 37°53' E 122°19'4116.7
2016-Jun-27 13:07N 38°14' E 121°35'916.4
2016-Jun-27 12:33N 38°19' E 121°25'2116.2
2016-Jun-27 11:14N 38°30' E 121°01'3215.2
2016-Jun-27 09:07N 38°36' E 120°21'813.6
2016-Jun-27 08:33N 38°37' E 120°11'1514.7
2016-Jun-27 07:33N 38°41' E 119°53'1515.5
2016-Jun-27 06:33N 38°44' E 119°33'  
2016-Jun-24 09:28N 38°52' E 118°04'0 0.1
2016-Jun-24 08:33N 38°52' E 118°04'0 0.0
2016-Jun-24 07:33N 38°52' E 118°04'0 0.0
2016-Jun-24 04:25N 38°52' E 118°04'255 8.8
2016-Jun-22 23:29N 37°32' E 123°13'4318.2
2016-Jun-22 21:08N 36°57' E 123°44'1017.6
2016-Jun-22 20:32N 36°49' E 123°52'  
Track history (hours):
 
Tides and Currents Weather Stations Pressure Air Temp Water Temp Dewpoint Dewpoint Depression Visibility Wind Speed Wind Dir Waves Ship Positions

Lena

Last reported at 2016-Jun-27 20:33 UTC. Time now 2016-Jun-29 16:30 UTC.
Position N 36°44' E 122°57'.

Length 152 m; draft 6 m.

Type: Ship. MMSI: 304080808.

Date/timePositionNaut miles runAvg speedWind from/ knotsBaromVisibWave heightAir tempDewpointWater temp
2016-Jun-27 20:33N 36°44' E 122°57'1817.7
2016-Jun-27 19:33N 37°02' E 122°58'1817.6
2016-Jun-27 18:33N 37°19' E 122°58'1716.4
2016-Jun-27 17:32N 37°36' E 122°54'1616.5
2016-Jun-27 16:32N 37°45' E 122°37'1616.6
2016-Jun-27 15:33N 37°53' E 122°19'4116.7
2016-Jun-27 13:07N 38°14' E 121°35'916.4
2016-Jun-27 12:33N 38°19' E 121°25'2116.2
2016-Jun-27 11:14N 38°30' E 121°01'3215.2
2016-Jun-27 09:07N 38°36' E 120°21'813.6
2016-Jun-27 08:33N 38°37' E 120°11'1514.7
2016-Jun-27 07:33N 38°41' E 119°53'1515.5
2016-Jun-27 06:33N 38°44' E 119°33'  
2016-Jun-24 09:28N 38°52' E 118°04'0 0.1
2016-Jun-24 08:33N 38°52' E 118°04'0 0.0
2016-Jun-24 07:33N 38°52' E 118°04'0 0.0
2016-Jun-24 04:25N 38°52' E 118°04'255 8.8
2016-Jun-22 23:29N 37°32' E 123°13'4318.2
2016-Jun-22 21:08N 36°57' E 123°44'1017.6
2016-Jun-22 20:32N 36°49' E 123°52'  

Dump ship's entire track history